createdAt,value
2023-05-14T00:00:58.591Z,10.20
2023-05-14T00:03:26.640Z,10.75
2023-05-14T00:05:54.484Z,10.48
2023-05-14T00:08:22.255Z,8.10
2023-05-14T00:10:49.967Z,11.35
2023-05-14T00:13:17.803Z,12.95
2023-05-14T00:15:45.583Z,13.18
2023-05-14T00:18:14.702Z,9.38
2023-05-14T00:20:42.725Z,7.05
2023-05-14T00:23:10.679Z,7.85
2023-05-14T00:25:38.634Z,9.60
2023-05-14T00:28:06.732Z,11.13
2023-05-14T00:30:34.862Z,8.68
2023-05-14T00:33:02.662Z,9.20
2023-05-14T00:35:31.873Z,12.68
2023-05-14T00:37:59.568Z,14.15
2023-05-14T00:40:28.793Z,7.93
2023-05-14T00:42:57.765Z,9.05
2023-05-14T00:45:25.859Z,11.15
2023-05-14T00:47:55.600Z,9.02
2023-05-14T00:50:24.284Z,9.85
2023-05-14T00:52:54.152Z,7.88
2023-05-14T00:55:23.624Z,11.07
2023-05-14T00:57:54.251Z,12.25
2023-05-14T01:00:22.173Z,8.23
2023-05-14T01:02:50.049Z,11.07
2023-05-14T01:05:18.293Z,8.90
2023-05-14T01:08:02.972Z,14.85
2023-05-14T01:11:02.318Z,8.68
2023-05-14T01:13:54.670Z,13.15
2023-05-14T01:16:27.465Z,10.38
2023-05-14T01:18:58.016Z,11.20
2023-05-14T01:21:38.293Z,11.63
2023-05-14T01:24:06.978Z,7.65
2023-05-14T01:26:35.873Z,8.80
2023-05-14T01:29:16.049Z,8.23
2023-05-14T01:31:48.066Z,10.02
2023-05-14T01:34:20.770Z,13.20
2023-05-14T01:36:52.166Z,11.63
2023-05-14T01:39:20.812Z,12.00
2023-05-14T01:41:49.941Z,8.35
2023-05-14T01:44:19.158Z,14.05
2023-05-14T01:46:46.914Z,7.25
2023-05-14T01:49:15.945Z,8.23
2023-05-14T01:51:43.618Z,10.93
2023-05-14T01:54:12.700Z,13.38
2023-05-14T01:56:40.460Z,14.50
2023-05-14T01:59:08.190Z,10.60
2023-05-14T02:01:35.905Z,7.28
2023-05-14T02:04:03.935Z,8.27
2023-05-14T02:06:32.070Z,12.93
2023-05-14T02:09:01.085Z,11.23
2023-05-14T02:11:30.498Z,8.25
2023-05-14T02:13:58.210Z,5.47
2023-05-14T02:16:26.008Z,9.70
2023-05-14T02:18:53.827Z,9.48
2023-05-14T02:21:21.612Z,10.07
2023-05-14T02:23:50.125Z,10.32
2023-05-14T02:26:17.969Z,11.15
2023-05-14T02:28:47.042Z,7.18
2023-05-14T02:31:14.838Z,11.20
2023-05-14T02:33:42.670Z,13.30
2023-05-14T02:36:10.470Z,9.70
2023-05-14T02:38:38.222Z,11.05
2023-05-14T02:41:05.980Z,8.10
2023-05-14T02:43:33.803Z,8.02
2023-05-14T02:46:02.885Z,14.73
2023-05-14T02:48:30.658Z,7.93
2023-05-14T02:50:58.350Z,12.40
2023-05-14T02:53:26.102Z,10.25
2023-05-14T02:55:53.864Z,9.55
2023-05-14T02:58:27.695Z,13.43
2023-05-14T03:00:56.518Z,10.32
2023-05-14T03:03:26.229Z,13.02
2023-05-14T03:05:54.792Z,10.13
2023-05-14T03:08:22.685Z,11.43
2023-05-14T03:10:50.461Z,12.68
2023-05-14T03:13:19.933Z,7.82
2023-05-14T03:15:48.459Z,6.68
2023-05-14T03:18:16.336Z,9.02
2023-05-14T03:20:45.392Z,10.95
2023-05-14T03:23:14.838Z,9.40
2023-05-14T03:25:42.744Z,7.50
2023-05-14T03:28:10.688Z,11.35
2023-05-14T03:30:38.913Z,10.10
2023-05-14T03:33:07.007Z,13.73
2023-05-14T03:35:34.848Z,10.63
2023-05-14T03:38:03.980Z,12.55
2023-05-14T03:40:31.774Z,15.10
2023-05-14T03:42:59.475Z,12.10
2023-05-14T03:45:28.564Z,14.57
2023-05-14T03:47:56.314Z,10.63
2023-05-14T03:50:25.409Z,11.60
2023-05-14T03:52:53.536Z,10.63
2023-05-14T03:55:23.065Z,10.27
2023-05-14T03:57:50.813Z,11.45
2023-05-14T04:00:19.033Z,9.18
2023-05-14T04:02:46.924Z,11.15
2023-05-14T04:05:14.816Z,13.48
2023-05-14T04:07:42.531Z,11.60
2023-05-14T04:10:11.048Z,8.73
2023-05-14T04:12:40.218Z,11.27
2023-05-14T04:15:10.175Z,11.35
2023-05-14T04:17:37.913Z,9.73
2023-05-14T04:20:07.526Z,7.70
2023-05-14T04:22:35.360Z,14.35
2023-05-14T04:25:03.067Z,8.98
2023-05-14T04:27:31.148Z,14.40
2023-05-14T04:30:00.349Z,9.35
2023-05-14T04:32:28.108Z,8.40
2023-05-14T04:34:55.924Z,14.88
2023-05-14T04:37:23.672Z,10.45
2023-05-14T04:39:51.441Z,10.93
2023-05-14T04:42:19.106Z,8.68
2023-05-14T04:44:46.827Z,7.78
2023-05-14T04:47:16.066Z,10.60
2023-05-14T04:49:43.729Z,8.85
2023-05-14T04:52:12.701Z,10.48
2023-05-14T04:54:40.620Z,9.65
2023-05-14T04:57:08.412Z,7.60
2023-05-14T04:59:36.423Z,9.07
2023-05-14T05:02:04.344Z,10.90
2023-05-14T05:04:33.546Z,7.75
2023-05-14T05:07:01.397Z,8.05
2023-05-14T05:09:29.158Z,9.25
2023-05-14T05:11:56.871Z,6.75
2023-05-14T05:14:24.621Z,5.38
2023-05-14T05:16:52.406Z,10.95
2023-05-14T05:19:26.546Z,12.82
2023-05-14T05:22:01.562Z,8.88
2023-05-14T05:24:29.261Z,16.48
2023-05-14T05:26:56.928Z,14.70
2023-05-14T05:29:26.700Z,12.05
2023-05-14T05:31:54.525Z,16.38
2023-05-14T05:34:22.271Z,10.57
2023-05-14T05:36:49.985Z,12.20
2023-05-14T05:39:19.062Z,10.68
2023-05-14T05:41:46.746Z,8.88
2023-05-14T05:44:14.401Z,9.95
2023-05-14T05:46:42.210Z,12.73
2023-05-14T05:49:09.967Z,11.13
2023-05-14T05:51:37.723Z,13.25
2023-05-14T05:54:05.883Z,10.75
2023-05-14T05:56:34.906Z,9.05
2023-05-14T05:59:03.968Z,6.88
2023-05-14T06:01:32.133Z,9.77
2023-05-14T06:03:59.943Z,7.78
2023-05-14T06:06:27.629Z,8.00
2023-05-14T06:08:55.419Z,9.57
2023-05-14T06:11:23.260Z,10.25
2023-05-14T06:13:52.285Z,12.13
2023-05-14T06:16:20.205Z,6.70
2023-05-14T06:18:48.044Z,8.75
2023-05-14T06:21:15.832Z,9.38
2023-05-14T06:23:43.611Z,7.25
2023-05-14T06:26:11.514Z,10.93
2023-05-14T06:28:39.298Z,11.40
2023-05-14T06:31:08.478Z,7.20
2023-05-14T06:33:36.253Z,7.18
2023-05-14T06:36:06.883Z,11.02
2023-05-14T06:38:34.639Z,9.20
2023-05-14T06:41:02.387Z,10.20
2023-05-14T06:43:30.205Z,7.47
2023-05-14T06:45:57.912Z,8.30
2023-05-14T06:48:29.366Z,8.05
2023-05-14T06:50:57.406Z,8.13
2023-05-14T06:53:25.150Z,9.10
2023-05-14T06:55:52.847Z,8.45
2023-05-14T06:58:20.607Z,6.18
2023-05-14T07:00:49.124Z,7.95
2023-05-14T07:03:16.831Z,9.32
2023-05-14T07:05:46.562Z,10.93
2023-05-14T07:08:14.462Z,9.80
2023-05-14T07:10:42.182Z,6.30
2023-05-14T07:13:09.886Z,6.68
2023-05-14T07:15:37.626Z,9.35
2023-05-14T07:18:05.637Z,10.32
2023-05-14T07:20:33.594Z,7.65
2023-05-14T07:23:02.678Z,6.80
2023-05-14T07:25:30.465Z,7.65
2023-05-14T07:27:58.195Z,8.63
2023-05-14T07:30:26.316Z,9.23
2023-05-14T07:32:54.392Z,6.63
2023-05-14T07:35:22.500Z,12.88
2023-05-14T07:37:50.441Z,9.48
2023-05-14T07:40:19.801Z,9.82
2023-05-14T07:42:47.545Z,9.18
2023-05-14T07:45:15.359Z,10.68
2023-05-14T07:47:43.239Z,7.97
2023-05-14T07:50:12.536Z,7.30
2023-05-14T07:52:40.227Z,10.43
2023-05-14T07:55:09.067Z,12.02
2023-05-14T07:57:38.205Z,8.98
2023-05-14T08:00:09.237Z,13.13
2023-05-14T08:02:37.208Z,5.68
2023-05-14T08:05:05.757Z,9.45
2023-05-14T08:07:33.811Z,6.28
2023-05-14T08:10:01.762Z,9.18
2023-05-14T08:12:29.798Z,8.85
2023-05-14T08:14:58.851Z,8.35
2023-05-14T08:17:26.835Z,11.40
2023-05-14T08:19:54.841Z,9.70
2023-05-14T08:22:23.062Z,7.82
2023-05-14T08:24:50.848Z,8.32
2023-05-14T08:27:18.549Z,8.25
2023-05-14T08:29:47.089Z,11.98
2023-05-14T08:32:23.333Z,9.32
2023-05-14T08:34:52.706Z,9.07
2023-05-14T08:37:20.525Z,8.77
2023-05-14T08:39:48.311Z,11.88
2023-05-14T08:42:21.858Z,11.98
2023-05-14T08:44:54.724Z,7.20
2023-05-14T08:47:26.313Z,7.45
2023-05-14T08:50:02.555Z,9.50
2023-05-14T08:52:31.449Z,9.80
2023-05-14T08:55:01.940Z,11.10
2023-05-14T08:57:32.503Z,10.95
2023-05-14T09:00:00.846Z,9.15
2023-05-14T09:02:32.237Z,12.57
2023-05-14T09:05:03.405Z,13.43
2023-05-14T09:07:32.684Z,10.15
2023-05-14T09:10:02.200Z,13.55
2023-05-14T09:12:29.997Z,9.70
2023-05-14T09:14:57.825Z,12.50
2023-05-14T09:17:28.172Z,12.15
2023-05-14T09:19:57.557Z,10.65
2023-05-14T09:22:25.310Z,9.68
2023-05-14T09:25:09.087Z,7.47
2023-05-14T09:27:39.871Z,7.20
2023-05-14T09:30:11.285Z,9.15
2023-05-14T09:32:43.652Z,7.88
2023-05-14T09:35:17.458Z,5.72
2023-05-14T09:37:47.676Z,6.70
2023-05-14T09:40:17.466Z,6.90
2023-05-14T09:42:45.935Z,7.95
2023-05-14T09:45:13.699Z,6.28
2023-05-14T09:47:42.009Z,7.55
2023-05-14T09:50:10.824Z,8.07
2023-05-14T09:52:40.255Z,9.38
2023-05-14T09:55:09.209Z,4.90
2023-05-14T09:57:37.067Z,3.95
2023-05-14T10:00:06.718Z,5.82
2023-05-14T10:02:38.783Z,6.90
2023-05-14T10:05:09.491Z,5.85
2023-05-14T10:07:45.327Z,6.15
2023-05-14T10:10:17.668Z,8.57
2023-05-14T10:12:54.195Z,7.35
2023-05-14T10:15:34.838Z,6.82
2023-05-14T10:18:21.042Z,3.90
2023-05-14T10:20:58.254Z,9.25
2023-05-14T10:23:28.119Z,5.78
2023-05-14T10:25:56.003Z,6.20
2023-05-14T10:28:23.877Z,7.63
2023-05-14T10:30:52.145Z,7.40
2023-05-14T10:33:19.902Z,8.35
2023-05-14T10:36:10.921Z,6.05
2023-05-14T10:38:40.084Z,7.25
2023-05-14T10:41:12.006Z,7.38
2023-05-14T10:43:42.354Z,3.92
2023-05-14T10:46:13.792Z,8.23
2023-05-14T10:48:44.515Z,2.88
2023-05-14T10:51:13.891Z,4.38
2023-05-14T10:53:44.652Z,5.70
2023-05-14T10:56:15.219Z,8.00
2023-05-14T10:58:44.532Z,6.50
2023-05-14T11:01:14.959Z,4.75
2023-05-14T11:03:45.367Z,6.20
2023-05-14T11:06:15.897Z,7.97
2023-05-14T11:08:46.753Z,4.07
2023-05-14T11:11:14.907Z,7.32
2023-05-14T11:13:43.808Z,5.78
2023-05-14T11:16:22.842Z,5.32
2023-05-14T11:19:01.845Z,4.97
2023-05-14T11:21:29.967Z,4.20
2023-05-14T11:24:01.213Z,3.33
2023-05-14T11:26:29.206Z,2.92
2023-05-14T11:28:57.130Z,5.25
2023-05-14T11:31:25.228Z,5.38
2023-05-14T11:33:54.147Z,6.72
2023-05-14T11:36:22.597Z,3.95
2023-05-14T11:38:52.517Z,7.95
2023-05-14T11:41:22.846Z,6.00
2023-05-14T11:43:50.875Z,4.85
2023-05-14T11:46:19.372Z,4.57
2023-05-14T11:48:47.464Z,6.85
2023-05-14T11:51:15.261Z,5.70
2023-05-14T11:53:43.042Z,8.40
2023-05-14T11:56:11.270Z,7.75
2023-05-14T11:58:40.793Z,7.88
2023-05-14T12:01:14.124Z,9.00
2023-05-14T12:03:42.206Z,6.13
2023-05-14T12:06:10.121Z,7.43
2023-05-14T12:08:38.221Z,5.22
2023-05-14T12:11:06.772Z,5.50
2023-05-14T12:13:34.669Z,7.50
2023-05-14T12:16:05.233Z,9.10
2023-05-14T12:18:33.586Z,7.60
2023-05-14T12:21:05.873Z,8.40
2023-05-14T12:23:34.176Z,3.53
2023-05-14T12:26:06.997Z,5.88
2023-05-14T12:28:38.311Z,5.13
2023-05-14T12:31:07.819Z,4.97
2023-05-14T12:33:35.691Z,10.15
2023-05-14T12:38:37.032Z,10.48
2023-05-14T12:41:04.711Z,5.68
2023-05-14T12:43:32.455Z,6.75
2023-05-14T12:46:00.372Z,3.75
2023-05-14T12:48:29.850Z,6.10
2023-05-14T12:50:57.533Z,6.57
2023-05-14T12:53:25.379Z,3.20
2023-05-14T12:55:53.161Z,3.28
2023-05-14T12:58:20.862Z,3.78
2023-05-14T13:00:48.594Z,5.53
2023-05-14T13:03:16.449Z,5.60
2023-05-14T13:05:45.617Z,3.03
2023-05-14T13:08:14.734Z,2.58
2023-05-14T13:10:42.433Z,1.58
2023-05-14T13:13:10.589Z,2.72
2023-05-14T13:15:38.523Z,3.28
2023-05-14T13:18:06.644Z,3.38
2023-05-14T13:20:34.783Z,2.40
2023-05-14T13:23:04.107Z,1.27
2023-05-14T13:25:31.853Z,2.33
2023-05-14T13:27:59.675Z,4.05
2023-05-14T13:30:27.533Z,1.50
2023-05-14T13:32:55.356Z,3.63
2023-05-14T13:35:23.499Z,2.38
2023-05-14T13:37:51.422Z,3.10
2023-05-14T13:40:20.966Z,2.38
2023-05-14T13:42:48.690Z,1.17
2023-05-14T13:45:16.417Z,0.95
2023-05-14T13:47:44.186Z,1.95
2023-05-14T13:50:12.013Z,1.42
2023-05-14T13:52:40.058Z,1.13
2023-05-14T13:55:09.256Z,0.85
2023-05-14T13:57:39.621Z,16.63
2023-05-14T14:00:10.049Z,2.50
2023-05-14T14:02:37.881Z,0.73
2023-05-14T14:05:06.858Z,2.38
2023-05-14T14:07:34.701Z,0.50
2023-05-14T14:10:02.400Z,1.20
2023-05-14T14:12:30.200Z,0.80
2023-05-14T14:14:59.491Z,1.35
2023-05-14T14:17:27.337Z,2.03
2023-05-14T14:19:55.088Z,0.70
2023-05-14T14:22:26.125Z,0.98
2023-05-14T14:24:55.853Z,0.60
2023-05-14T14:27:23.534Z,1.05
2023-05-14T14:29:51.284Z,2.20
2023-05-14T14:32:21.137Z,0.57
2023-05-14T14:34:48.831Z,2.22
2023-05-14T14:37:16.539Z,1.48
2023-05-14T14:39:44.250Z,0.75
2023-05-14T14:42:12.179Z,0.80
2023-05-14T14:44:39.949Z,0.95
2023-05-14T14:47:07.961Z,4.30
2023-05-14T14:49:37.442Z,0.82
2023-05-14T14:52:06.498Z,1.83
2023-05-14T14:54:34.222Z,0.55
2023-05-14T14:57:02.029Z,1.08
2023-05-14T14:59:29.745Z,0.57
2023-05-14T15:01:57.693Z,1.00
2023-05-14T15:04:25.718Z,0.82
2023-05-14T15:06:54.858Z,0.40
2023-05-14T15:09:22.592Z,0.38
2023-05-14T15:11:50.589Z,0.63
2023-05-14T15:14:18.363Z,0.52
2023-05-14T15:16:46.773Z,1.80
2023-05-14T15:19:16.251Z,3.03
2023-05-14T15:21:44.278Z,9.63
2023-05-14T15:24:14.071Z,0.70
2023-05-14T15:26:42.013Z,1.35
2023-05-14T15:29:09.921Z,2.58
2023-05-14T15:31:37.816Z,0.70
2023-05-14T15:34:05.939Z,5.10
2023-05-14T15:36:33.756Z,0.47
2023-05-14T15:39:01.459Z,0.75
2023-05-14T15:41:31.169Z,1.35
2023-05-14T15:43:59.314Z,1.55
2023-05-14T15:46:27.113Z,0.40
2023-05-14T15:48:55.014Z,0.35
2023-05-14T15:51:22.757Z,0.28
2023-05-14T15:53:50.954Z,0.60
2023-05-14T15:56:18.679Z,0.57
2023-05-14T15:58:47.766Z,0.68
2023-05-14T16:01:15.636Z,0.95
2023-05-14T16:03:43.574Z,0.60
2023-05-14T16:06:12.143Z,0.63
2023-05-14T16:08:39.981Z,0.30
2023-05-14T16:11:08.222Z,0.45
2023-05-14T16:13:38.216Z,3.35
2023-05-14T16:16:07.682Z,0.82
2023-05-14T16:18:35.620Z,0.82
2023-05-14T16:21:03.604Z,0.57
2023-05-14T16:23:31.477Z,0.50
2023-05-14T16:25:59.230Z,0.60
2023-05-14T16:28:27.060Z,1.58
2023-05-14T16:30:54.872Z,0.98
2023-05-14T16:33:23.896Z,1.10
2023-05-14T16:35:52.354Z,4.82
2023-05-14T16:38:20.145Z,0.98
2023-05-14T16:40:47.873Z,2.13
2023-05-14T16:43:15.624Z,0.45
2023-05-14T16:45:43.829Z,1.55
2023-05-14T16:48:11.668Z,0.52
2023-05-14T16:50:40.813Z,0.70
2023-05-14T16:53:08.579Z,0.73
2023-05-14T16:55:36.295Z,0.80
2023-05-14T16:58:04.644Z,0.95
2023-05-14T17:00:32.297Z,2.33
2023-05-14T17:03:00.156Z,1.08
2023-05-14T17:05:28.171Z,0.60
2023-05-14T17:07:57.598Z,0.98
2023-05-14T17:10:26.091Z,0.65
2023-05-14T17:12:54.014Z,1.30
2023-05-14T17:15:21.910Z,1.02
2023-05-14T17:17:49.752Z,0.70
2023-05-14T17:20:17.702Z,2.17
2023-05-14T17:22:45.402Z,2.65
2023-05-14T17:25:14.859Z,0.50
2023-05-14T17:27:42.631Z,0.52
2023-05-14T17:30:11.528Z,3.50
2023-05-14T17:32:39.439Z,0.28
2023-05-14T17:35:09.455Z,1.40
2023-05-14T17:37:37.573Z,0.45
2023-05-14T17:40:06.943Z,0.32
2023-05-14T17:42:36.152Z,1.10
2023-05-14T17:45:04.229Z,0.47
2023-05-14T17:47:32.848Z,1.60
2023-05-14T17:50:00.541Z,0.75
2023-05-14T17:52:28.349Z,0.45
2023-05-14T17:54:56.261Z,0.50
2023-05-14T17:57:24.062Z,0.63
2023-05-14T17:59:53.093Z,1.02
2023-05-14T18:02:20.874Z,1.00
2023-05-14T18:04:48.600Z,7.13
2023-05-14T18:07:16.349Z,2.70
2023-05-14T18:09:44.137Z,1.15
2023-05-14T18:12:11.955Z,0.57
2023-05-14T18:14:39.819Z,2.15
2023-05-14T18:17:09.864Z,0.50
2023-05-14T18:19:37.863Z,0.77
2023-05-14T18:22:06.157Z,0.20
2023-05-14T18:24:33.954Z,0.52
2023-05-14T18:27:01.940Z,0.93
2023-05-14T18:29:29.671Z,0.93
2023-05-14T18:31:57.361Z,0.52
2023-05-14T18:34:26.486Z,1.13
2023-05-14T18:36:54.468Z,0.52
2023-05-14T18:39:22.164Z,4.40
2023-05-14T18:41:49.896Z,0.70
2023-05-14T18:44:17.623Z,0.60
2023-05-14T18:46:45.523Z,0.85
2023-05-14T18:49:13.447Z,2.15
2023-05-14T18:51:42.543Z,0.63
2023-05-14T18:54:10.362Z,1.55
2023-05-14T18:56:39.898Z,7.05
2023-05-14T18:59:07.790Z,2.53
2023-05-14T19:01:36.258Z,0.40
2023-05-14T19:04:06.157Z,0.52
2023-05-14T19:06:34.089Z,0.52
2023-05-14T19:09:05.829Z,2.25
2023-05-14T19:11:33.758Z,1.08
2023-05-14T19:14:01.548Z,0.32
2023-05-14T19:16:29.518Z,0.55
2023-05-14T19:18:57.551Z,0.60
2023-05-14T19:21:25.405Z,0.73
2023-05-14T19:23:53.113Z,0.98
2023-05-14T19:26:22.529Z,0.38
2023-05-14T19:28:50.271Z,0.65
2023-05-14T19:31:17.973Z,1.05
2023-05-14T19:33:45.700Z,0.30
2023-05-14T19:36:13.481Z,3.25
2023-05-14T19:38:41.308Z,0.70
2023-05-14T19:41:09.013Z,0.68
2023-05-14T19:43:38.080Z,1.08
2023-05-14T19:46:06.558Z,0.35
2023-05-14T19:48:34.507Z,1.85
2023-05-14T19:51:02.754Z,0.57
2023-05-14T19:53:30.532Z,2.35
2023-05-14T19:55:58.829Z,3.13
2023-05-14T19:58:27.382Z,0.35
2023-05-14T20:00:57.554Z,0.40
2023-05-14T20:03:26.386Z,0.32
2023-05-14T20:05:55.094Z,0.28
2023-05-14T20:08:22.891Z,0.20
2023-05-14T20:10:50.669Z,0.52
2023-05-14T20:13:18.348Z,0.40
2023-05-14T20:15:46.503Z,0.68
2023-05-14T20:18:15.730Z,2.20
2023-05-14T20:20:43.836Z,0.52
2023-05-14T20:23:11.513Z,0.93
2023-05-14T20:25:39.332Z,1.17
2023-05-14T20:28:07.044Z,1.08
2023-05-14T20:30:34.774Z,0.82
2023-05-14T20:33:02.539Z,2.65
2023-05-14T20:35:31.684Z,0.40
2023-05-14T20:37:59.568Z,1.73
2023-05-14T20:40:27.511Z,0.45
2023-05-14T20:42:55.310Z,0.40
2023-05-14T20:45:23.455Z,1.45
2023-05-14T20:47:51.688Z,0.98
2023-05-14T20:50:19.684Z,0.60
2023-05-14T20:52:49.095Z,2.65
2023-05-14T20:55:18.103Z,0.75
2023-05-14T20:57:46.004Z,3.80
2023-05-14T21:00:15.058Z,1.10
2023-05-14T21:02:42.941Z,1.27
2023-05-14T21:05:10.712Z,0.40
2023-05-14T21:07:39.259Z,2.60
2023-05-14T21:10:10.662Z,0.70
2023-05-14T21:12:38.417Z,1.77
2023-05-14T21:15:07.519Z,0.35
2023-05-14T21:17:35.349Z,0.75
2023-05-14T21:20:03.378Z,1.45
2023-05-14T21:22:31.076Z,0.20
2023-05-14T21:24:58.750Z,0.80
2023-05-14T21:27:28.025Z,2.50
2023-05-14T21:29:55.788Z,0.63
2023-05-14T21:32:23.815Z,2.63
2023-05-14T21:34:51.595Z,0.50
2023-05-14T21:37:19.476Z,1.95
2023-05-14T21:39:47.224Z,0.68
2023-05-14T21:42:15.994Z,1.20
2023-05-14T21:44:45.063Z,0.70
2023-05-14T21:47:13.201Z,0.35
2023-05-14T21:49:41.554Z,1.65
2023-05-14T21:52:09.362Z,0.80
2023-05-14T21:54:37.297Z,0.75
2023-05-14T21:57:06.320Z,2.38
2023-05-14T21:59:34.745Z,1.00
2023-05-14T22:02:07.705Z,0.43
2023-05-14T22:04:35.978Z,3.72
2023-05-14T22:07:04.004Z,0.82
2023-05-14T22:09:31.841Z,4.25
2023-05-14T22:12:00.489Z,0.60
2023-05-14T22:14:28.195Z,1.25
2023-05-14T22:16:56.098Z,0.60
2023-05-14T22:19:25.721Z,2.85
2023-05-14T22:21:53.443Z,1.38
2023-05-14T22:24:21.148Z,1.50
2023-05-14T22:26:48.941Z,2.75
2023-05-14T22:29:16.691Z,1.10
2023-05-14T22:31:44.474Z,1.60
2023-05-14T22:34:12.337Z,0.45
2023-05-14T22:36:41.670Z,0.68
2023-05-14T22:39:11.303Z,0.65
2023-05-14T22:41:40.477Z,1.73
2023-05-14T22:44:08.195Z,0.15
2023-05-14T22:46:36.122Z,3.47
2023-05-14T22:49:03.876Z,1.40
2023-05-14T22:51:31.584Z,1.30
2023-05-14T22:54:00.693Z,0.80
2023-05-14T22:56:29.209Z,0.32
2023-05-14T22:58:56.919Z,0.20
2023-05-14T23:01:24.683Z,1.02
2023-05-14T23:03:52.384Z,1.38
2023-05-14T23:06:20.419Z,0.65
2023-05-14T23:08:48.874Z,1.38
2023-05-14T23:11:18.250Z,0.30
2023-05-14T23:13:46.113Z,2.50
2023-05-14T23:16:14.121Z,0.40
2023-05-14T23:18:42.160Z,0.50
2023-05-14T23:21:10.106Z,0.50
2023-05-14T23:23:37.861Z,1.10
2023-05-14T23:26:06.017Z,0.30
2023-05-14T23:28:35.083Z,1.25
2023-05-14T23:31:03.292Z,0.40
2023-05-14T23:33:31.042Z,1.20
2023-05-14T23:35:58.946Z,0.30
2023-05-14T23:38:26.793Z,0.80
2023-05-14T23:40:54.479Z,0.70
2023-05-14T23:43:22.223Z,0.20
2023-05-14T23:45:51.501Z,0.30
2023-05-14T23:48:19.524Z,0.60
2023-05-14T23:50:49.553Z,0.50
2023-05-14T23:53:17.299Z,2.45
2023-05-14T23:55:45.056Z,0.50
2023-05-14T23:58:12.919Z,2.55
